sensor_id;sensor_type;location;lat;lon;timestamp;P1;durP1;ratioP1;P2;durP2;ratioP2
12826;SDS011;66927;48.812;9.118;2023-02-28T00:01:22;2.73;;;2.37;;
12826;SDS011;66927;48.812;9.118;2023-02-28T00:03:48;3.63;;;2.90;;
12826;SDS011;66927;48.812;9.118;2023-02-28T00:06:14;3.20;;;2.60;;
12826;SDS011;66927;48.812;9.118;2023-02-28T00:08:40;4.30;;;2.40;;
12826;SDS011;66927;48.812;9.118;2023-02-28T00:11:07;4.17;;;2.30;;
12826;SDS011;66927;48.812;9.118;2023-02-28T00:13:35;3.50;;;2.37;;
12826;SDS011;66927;48.812;9.118;2023-02-28T00:16:07;2.97;;;2.20;;
12826;SDS011;66927;48.812;9.118;2023-02-28T00:18:37;2.97;;;2.30;;
12826;SDS011;66927;48.812;9.118;2023-02-28T00:21:03;4.20;;;2.43;;
12826;SDS011;66927;48.812;9.118;2023-02-28T00:23:29;3.33;;;2.57;;
12826;SDS011;66927;48.812;9.118;2023-02-28T00:25:58;2.77;;;2.07;;
12826;SDS011;66927;48.812;9.118;2023-02-28T00:28:24;4.07;;;2.57;;
12826;SDS011;66927;48.812;9.118;2023-02-28T00:30:49;3.83;;;2.63;;
12826;SDS011;66927;48.812;9.118;2023-02-28T00:33:15;3.43;;;2.20;;
12826;SDS011;66927;48.812;9.118;2023-02-28T00:35:41;3.83;;;2.63;;
12826;SDS011;66927;48.812;9.118;2023-02-28T00:38:07;4.20;;;2.50;;
12826;SDS011;66927;48.812;9.118;2023-02-28T00:40:33;3.13;;;2.47;;
12826;SDS011;66927;48.812;9.118;2023-02-28T00:42:59;4.33;;;2.60;;
12826;SDS011;66927;48.812;9.118;2023-02-28T00:45:24;3.80;;;2.37;;
12826;SDS011;66927;48.812;9.118;2023-02-28T00:47:50;5.17;;;2.73;;
12826;SDS011;66927;48.812;9.118;2023-02-28T00:50:17;4.20;;;2.40;;
12826;SDS011;66927;48.812;9.118;2023-02-28T00:52:43;3.20;;;2.40;;
12826;SDS011;66927;48.812;9.118;2023-02-28T00:55:09;3.93;;;2.10;;
12826;SDS011;66927;48.812;9.118;2023-02-28T00:57:35;5.10;;;2.80;;
12826;SDS011;66927;48.812;9.118;2023-02-28T01:00:01;3.13;;;2.50;;
12826;SDS011;66927;48.812;9.118;2023-02-28T01:02:26;3.80;;;2.37;;
12826;SDS011;66927;48.812;9.118;2023-02-28T01:04:52;3.60;;;2.43;;
12826;SDS011;66927;48.812;9.118;2023-02-28T01:07:18;4.73;;;2.80;;
12826;SDS011;66927;48.812;9.118;2023-02-28T01:09:44;3.57;;;2.43;;
12826;SDS011;66927;48.812;9.118;2023-02-28T01:12:10;3.47;;;2.73;;
12826;SDS011;66927;48.812;9.118;2023-02-28T01:14:36;3.63;;;3.10;;
12826;SDS011;66927;48.812;9.118;2023-02-28T01:17:02;5.20;;;3.13;;
12826;SDS011;66927;48.812;9.118;2023-02-28T01:19:27;4.33;;;3.13;;
12826;SDS011;66927;48.812;9.118;2023-02-28T01:21:54;3.87;;;2.80;;
12826;SDS011;66927;48.812;9.118;2023-02-28T01:24:20;4.63;;;2.73;;
12826;SDS011;66927;48.812;9.118;2023-02-28T01:26:46;5.90;;;3.20;;
12826;SDS011;66927;48.812;9.118;2023-02-28T01:29:11;4.73;;;3.00;;
12826;SDS011;66927;48.812;9.118;2023-02-28T01:31:38;2.63;;;2.33;;
12826;SDS011;66927;48.812;9.118;2023-02-28T01:34:04;4.73;;;2.73;;
12826;SDS011;66927;48.812;9.118;2023-02-28T01:36:29;4.80;;;2.93;;
12826;SDS011;66927;48.812;9.118;2023-02-28T01:38:55;3.93;;;3.17;;
12826;SDS011;66927;48.812;9.118;2023-02-28T01:41:29;4.03;;;3.20;;
12826;SDS011;66927;48.812;9.118;2023-02-28T01:43:58;3.33;;;2.63;;
12826;SDS011;66927;48.812;9.118;2023-02-28T01:46:30;3.87;;;2.93;;
12826;SDS011;66927;48.812;9.118;2023-02-28T01:51:39;3.40;;;2.97;;
12826;SDS011;66927;48.812;9.118;2023-02-28T01:54:12;5.47;;;3.30;;
12826;SDS011;66927;48.812;9.118;2023-02-28T01:57:04;3.50;;;2.90;;
12826;SDS011;66927;48.812;9.118;2023-02-28T01:59:37;6.43;;;2.87;;
12826;SDS011;66927;48.812;9.118;2023-02-28T02:02:13;5.93;;;3.83;;
12826;SDS011;66927;48.812;9.118;2023-02-28T02:04:46;4.70;;;3.30;;
12826;SDS011;66927;48.812;9.118;2023-02-28T02:07:20;3.93;;;2.77;;
12826;SDS011;66927;48.812;9.118;2023-02-28T02:09:48;3.23;;;2.77;;
12826;SDS011;66927;48.812;9.118;2023-02-28T02:12:34;4.53;;;3.10;;
12826;SDS011;66927;48.812;9.118;2023-02-28T02:18:00;4.27;;;2.70;;
12826;SDS011;66927;48.812;9.118;2023-02-28T02:29:42;3.90;;;2.60;;
12826;SDS011;66927;48.812;9.118;2023-02-28T02:37:44;4.57;;;3.07;;
12826;SDS011;66927;48.812;9.118;2023-02-28T02:40:19;4.43;;;3.20;;
12826;SDS011;66927;48.812;9.118;2023-02-28T02:43:12;4.97;;;3.57;;
12826;SDS011;66927;48.812;9.118;2023-02-28T02:45:53;4.90;;;3.33;;
12826;SDS011;66927;48.812;9.118;2023-02-28T02:48:25;5.03;;;3.00;;
12826;SDS011;66927;48.812;9.118;2023-02-28T02:50:55;4.50;;;3.57;;
12826;SDS011;66927;48.812;9.118;2023-02-28T02:53:30;6.30;;;3.77;;
12826;SDS011;66927;48.812;9.118;2023-02-28T02:56:00;6.57;;;4.37;;
12826;SDS011;66927;48.812;9.118;2023-02-28T02:58:29;5.30;;;3.50;;
12826;SDS011;66927;48.812;9.118;2023-02-28T03:01:06;5.63;;;3.77;;
12826;SDS011;66927;48.812;9.118;2023-02-28T03:03:35;6.30;;;3.83;;
12826;SDS011;66927;48.812;9.118;2023-02-28T03:06:02;6.07;;;3.60;;
12826;SDS011;66927;48.812;9.118;2023-02-28T03:08:29;4.03;;;3.63;;
12826;SDS011;66927;48.812;9.118;2023-02-28T03:11:04;5.03;;;3.80;;
12826;SDS011;66927;48.812;9.118;2023-02-28T03:30:06;5.60;;;4.07;;
12826;SDS011;66927;48.812;9.118;2023-02-28T03:35:34;4.80;;;3.50;;
12826;SDS011;66927;48.812;9.118;2023-02-28T03:40:56;4.00;;;3.33;;
12826;SDS011;66927;48.812;9.118;2023-02-28T03:43:27;4.43;;;3.80;;
12826;SDS011;66927;48.812;9.118;2023-02-28T03:45:59;4.37;;;3.70;;
12826;SDS011;66927;48.812;9.118;2023-02-28T03:48:31;4.80;;;3.67;;
12826;SDS011;66927;48.812;9.118;2023-02-28T03:51:13;3.67;;;3.37;;
12826;SDS011;66927;48.812;9.118;2023-02-28T03:53:44;4.80;;;3.80;;
12826;SDS011;66927;48.812;9.118;2023-02-28T03:56:20;7.17;;;3.93;;
12826;SDS011;66927;48.812;9.118;2023-02-28T04:01:36;5.33;;;4.07;;
12826;SDS011;66927;48.812;9.118;2023-02-28T04:04:09;4.80;;;3.63;;
12826;SDS011;66927;48.812;9.118;2023-02-28T04:06:36;6.10;;;3.90;;
12826;SDS011;66927;48.812;9.118;2023-02-28T04:09:05;4.57;;;3.70;;
12826;SDS011;66927;48.812;9.118;2023-02-28T04:11:33;5.47;;;4.30;;
12826;SDS011;66927;48.812;9.118;2023-02-28T04:14:07;6.33;;;4.13;;
12826;SDS011;66927;48.812;9.118;2023-02-28T04:16:35;7.20;;;3.67;;
12826;SDS011;66927;48.812;9.118;2023-02-28T04:19:03;4.57;;;3.90;;
12826;SDS011;66927;48.812;9.118;2023-02-28T04:21:34;5.97;;;4.00;;
12826;SDS011;66927;48.812;9.118;2023-02-28T04:24:01;5.73;;;3.67;;
12826;SDS011;66927;48.812;9.118;2023-02-28T04:26:29;5.20;;;4.10;;
12826;SDS011;66927;48.812;9.118;2023-02-28T04:28:57;5.50;;;3.80;;
12826;SDS011;66927;48.812;9.118;2023-02-28T04:31:23;5.13;;;3.87;;
12826;SDS011;66927;48.812;9.118;2023-02-28T04:33:52;4.93;;;4.00;;
12826;SDS011;66927;48.812;9.118;2023-02-28T04:36:17;5.07;;;3.83;;
12826;SDS011;66927;48.812;9.118;2023-02-28T04:38:44;5.57;;;3.97;;
12826;SDS011;66927;48.812;9.118;2023-02-28T04:41:10;5.80;;;4.07;;
12826;SDS011;66927;48.812;9.118;2023-02-28T04:43:36;6.87;;;4.53;;
12826;SDS011;66927;48.812;9.118;2023-02-28T04:46:03;6.60;;;4.53;;
12826;SDS011;66927;48.812;9.118;2023-02-28T04:48:31;4.77;;;3.73;;
12826;SDS011;66927;48.812;9.118;2023-02-28T04:51:02;8.47;;;5.33;;
12826;SDS011;66927;48.812;9.118;2023-02-28T04:53:37;6.40;;;4.80;;
12826;SDS011;66927;48.812;9.118;2023-02-28T04:56:04;5.10;;;4.40;;
12826;SDS011;66927;48.812;9.118;2023-02-28T04:58:31;5.40;;;4.27;;
12826;SDS011;66927;48.812;9.118;2023-02-28T05:03:38;5.30;;;4.10;;
12826;SDS011;66927;48.812;9.118;2023-02-28T05:06:09;5.07;;;4.53;;
12826;SDS011;66927;48.812;9.118;2023-02-28T05:08:35;7.57;;;5.53;;
12826;SDS011;66927;48.812;9.118;2023-02-28T05:11:02;8.03;;;5.17;;
12826;SDS011;66927;48.812;9.118;2023-02-28T05:13:28;7.47;;;4.90;;
12826;SDS011;66927;48.812;9.118;2023-02-28T05:15:55;7.23;;;4.57;;
12826;SDS011;66927;48.812;9.118;2023-02-28T05:18:22;6.93;;;4.70;;
12826;SDS011;66927;48.812;9.118;2023-02-28T05:20:48;7.67;;;4.40;;
12826;SDS011;66927;48.812;9.118;2023-02-28T05:23:14;6.10;;;4.77;;
12826;SDS011;66927;48.812;9.118;2023-02-28T05:25:42;6.93;;;5.10;;
12826;SDS011;66927;48.812;9.118;2023-02-28T05:28:08;7.60;;;4.87;;
12826;SDS011;66927;48.812;9.118;2023-02-28T05:30:34;7.13;;;4.80;;
12826;SDS011;66927;48.812;9.118;2023-02-28T05:33:01;7.97;;;5.07;;
12826;SDS011;66927;48.812;9.118;2023-02-28T05:35:27;5.60;;;4.33;;
12826;SDS011;66927;48.812;9.118;2023-02-28T05:37:53;6.40;;;4.87;;
12826;SDS011;66927;48.812;9.118;2023-02-28T05:40:18;7.23;;;5.03;;
12826;SDS011;66927;48.812;9.118;2023-02-28T05:42:47;9.67;;;5.67;;
12826;SDS011;66927;48.812;9.118;2023-02-28T05:45:14;8.57;;;7.10;;
12826;SDS011;66927;48.812;9.118;2023-02-28T05:47:40;8.13;;;5.03;;
12826;SDS011;66927;48.812;9.118;2023-02-28T05:50:06;7.57;;;5.40;;
12826;SDS011;66927;48.812;9.118;2023-02-28T05:52:34;7.57;;;5.37;;
12826;SDS011;66927;48.812;9.118;2023-02-28T05:55:00;6.23;;;4.60;;
12826;SDS011;66927;48.812;9.118;2023-02-28T05:57:26;6.17;;;4.87;;
12826;SDS011;66927;48.812;9.118;2023-02-28T05:59:53;7.10;;;5.27;;
12826;SDS011;66927;48.812;9.118;2023-02-28T06:02:18;7.90;;;4.77;;
12826;SDS011;66927;48.812;9.118;2023-02-28T06:04:45;7.73;;;5.20;;
12826;SDS011;66927;48.812;9.118;2023-02-28T06:07:11;5.90;;;4.97;;
12826;SDS011;66927;48.812;9.118;2023-02-28T06:09:37;6.00;;;4.83;;
12826;SDS011;66927;48.812;9.118;2023-02-28T06:12:04;6.07;;;4.93;;
12826;SDS011;66927;48.812;9.118;2023-02-28T06:14:32;7.13;;;5.30;;
12826;SDS011;66927;48.812;9.118;2023-02-28T06:17:00;6.87;;;5.57;;
12826;SDS011;66927;48.812;9.118;2023-02-28T06:19:27;7.37;;;4.57;;
12826;SDS011;66927;48.812;9.118;2023-02-28T06:21:55;6.43;;;5.00;;
12826;SDS011;66927;48.812;9.118;2023-02-28T06:24:22;7.30;;;5.10;;
12826;SDS011;66927;48.812;9.118;2023-02-28T06:26:53;14.30;;;9.17;;
12826;SDS011;66927;48.812;9.118;2023-02-28T06:29:18;8.13;;;5.90;;
12826;SDS011;66927;48.812;9.118;2023-02-28T06:31:45;7.13;;;5.17;;
12826;SDS011;66927;48.812;9.118;2023-02-28T06:34:11;7.70;;;5.30;;
12826;SDS011;66927;48.812;9.118;2023-02-28T06:36:41;7.50;;;5.43;;
12826;SDS011;66927;48.812;9.118;2023-02-28T06:39:09;7.90;;;5.07;;
12826;SDS011;66927;48.812;9.118;2023-02-28T06:41:35;6.77;;;5.43;;
12826;SDS011;66927;48.812;9.118;2023-02-28T06:44:05;7.77;;;6.20;;
12826;SDS011;66927;48.812;9.118;2023-02-28T06:46:38;7.63;;;5.47;;
12826;SDS011;66927;48.812;9.118;2023-02-28T06:49:05;9.33;;;6.00;;
12826;SDS011;66927;48.812;9.118;2023-02-28T06:51:33;6.90;;;5.30;;
12826;SDS011;66927;48.812;9.118;2023-02-28T06:54:00;13.60;;;9.83;;
12826;SDS011;66927;48.812;9.118;2023-02-28T06:56:27;6.90;;;5.57;;
12826;SDS011;66927;48.812;9.118;2023-02-28T06:58:52;6.80;;;6.10;;
12826;SDS011;66927;48.812;9.118;2023-02-28T07:01:18;8.57;;;5.60;;
12826;SDS011;66927;48.812;9.118;2023-02-28T07:03:47;6.17;;;4.97;;
12826;SDS011;66927;48.812;9.118;2023-02-28T07:06:17;9.97;;;6.30;;
12826;SDS011;66927;48.812;9.118;2023-02-28T07:08:50;6.53;;;5.20;;
12826;SDS011;66927;48.812;9.118;2023-02-28T07:11:17;8.80;;;6.07;;
12826;SDS011;66927;48.812;9.118;2023-02-28T07:13:44;8.73;;;5.67;;
12826;SDS011;66927;48.812;9.118;2023-02-28T07:16:10;10.47;;;6.37;;
12826;SDS011;66927;48.812;9.118;2023-02-28T07:18:37;9.37;;;5.57;;
12826;SDS011;66927;48.812;9.118;2023-02-28T07:21:04;6.27;;;5.43;;
12826;SDS011;66927;48.812;9.118;2023-02-28T07:23:31;7.23;;;5.73;;
12826;SDS011;66927;48.812;9.118;2023-02-28T07:25:57;7.17;;;5.63;;
12826;SDS011;66927;48.812;9.118;2023-02-28T07:28:23;7.57;;;5.90;;
12826;SDS011;66927;48.812;9.118;2023-02-28T07:30:49;7.07;;;5.80;;
12826;SDS011;66927;48.812;9.118;2023-02-28T07:33:15;9.07;;;6.23;;
12826;SDS011;66927;48.812;9.118;2023-02-28T07:35:41;7.73;;;5.67;;
12826;SDS011;66927;48.812;9.118;2023-02-28T07:38:07;7.50;;;5.50;;
12826;SDS011;66927;48.812;9.118;2023-02-28T07:40:33;8.77;;;6.77;;
12826;SDS011;66927;48.812;9.118;2023-02-28T07:43:00;15.80;;;8.40;;
12826;SDS011;66927;48.812;9.118;2023-02-28T07:45:27;12.33;;;6.27;;
12826;SDS011;66927;48.812;9.118;2023-02-28T07:47:54;16.30;;;5.93;;
12826;SDS011;66927;48.812;9.118;2023-02-28T07:50:20;7.63;;;5.97;;
12826;SDS011;66927;48.812;9.118;2023-02-28T07:52:47;11.50;;;6.37;;
12826;SDS011;66927;48.812;9.118;2023-02-28T07:55:13;8.33;;;6.37;;
12826;SDS011;66927;48.812;9.118;2023-02-28T07:57:39;8.73;;;5.90;;
12826;SDS011;66927;48.812;9.118;2023-02-28T08:00:06;9.47;;;7.37;;
12826;SDS011;66927;48.812;9.118;2023-02-28T08:02:36;8.47;;;6.50;;
12826;SDS011;66927;48.812;9.118;2023-02-28T08:05:02;9.80;;;6.03;;
12826;SDS011;66927;48.812;9.118;2023-02-28T08:07:28;9.10;;;6.30;;
12826;SDS011;66927;48.812;9.118;2023-02-28T08:09:55;7.30;;;5.80;;
12826;SDS011;66927;48.812;9.118;2023-02-28T08:12:20;9.90;;;6.27;;
12826;SDS011;66927;48.812;9.118;2023-02-28T08:14:46;9.00;;;7.10;;
12826;SDS011;66927;48.812;9.118;2023-02-28T08:17:12;8.00;;;6.40;;
12826;SDS011;66927;48.812;9.118;2023-02-28T08:19:37;11.40;;;6.53;;
12826;SDS011;66927;48.812;9.118;2023-02-28T08:22:06;7.80;;;5.90;;
12826;SDS011;66927;48.812;9.118;2023-02-28T08:24:33;9.53;;;6.23;;
12826;SDS011;66927;48.812;9.118;2023-02-28T08:26:58;8.43;;;6.17;;
12826;SDS011;66927;48.812;9.118;2023-02-28T08:29:24;7.47;;;6.13;;
12826;SDS011;66927;48.812;9.118;2023-02-28T08:31:50;10.23;;;7.40;;
12826;SDS011;66927;48.812;9.118;2023-02-28T08:34:16;8.23;;;6.43;;
12826;SDS011;66927;48.812;9.118;2023-02-28T08:36:42;8.83;;;6.27;;
12826;SDS011;66927;48.812;9.118;2023-02-28T08:39:10;9.80;;;6.40;;
12826;SDS011;66927;48.812;9.118;2023-02-28T08:41:35;8.23;;;6.93;;
12826;SDS011;66927;48.812;9.118;2023-02-28T08:44:02;12.93;;;8.30;;
12826;SDS011;66927;48.812;9.118;2023-02-28T08:46:27;9.40;;;7.13;;
12826;SDS011;66927;48.812;9.118;2023-02-28T08:48:55;8.43;;;5.97;;
12826;SDS011;66927;48.812;9.118;2023-02-28T08:51:25;10.03;;;6.77;;
12826;SDS011;66927;48.812;9.118;2023-02-28T08:53:55;11.47;;;6.80;;
12826;SDS011;66927;48.812;9.118;2023-02-28T08:56:24;9.67;;;6.73;;
12826;SDS011;66927;48.812;9.118;2023-02-28T08:58:51;8.87;;;7.10;;
12826;SDS011;66927;48.812;9.118;2023-02-28T09:01:21;9.97;;;7.00;;
12826;SDS011;66927;48.812;9.118;2023-02-28T09:03:54;8.03;;;7.10;;
12826;SDS011;66927;48.812;9.118;2023-02-28T09:06:21;7.93;;;6.53;;
12826;SDS011;66927;48.812;9.118;2023-02-28T09:08:49;8.80;;;7.23;;
12826;SDS011;66927;48.812;9.118;2023-02-28T09:11:15;10.43;;;6.93;;
12826;SDS011;66927;48.812;9.118;2023-02-28T09:13:41;10.57;;;7.40;;
12826;SDS011;66927;48.812;9.118;2023-02-28T09:16:08;13.40;;;7.50;;
12826;SDS011;66927;48.812;9.118;2023-02-28T09:18:37;12.27;;;7.50;;
12826;SDS011;66927;48.812;9.118;2023-02-28T09:21:04;10.03;;;6.93;;
12826;SDS011;66927;48.812;9.118;2023-02-28T09:23:31;9.80;;;7.60;;
12826;SDS011;66927;48.812;9.118;2023-02-28T09:25:57;8.60;;;6.33;;
12826;SDS011;66927;48.812;9.118;2023-02-28T09:28:22;10.67;;;7.30;;
12826;SDS011;66927;48.812;9.118;2023-02-28T09:30:50;9.63;;;7.20;;
12826;SDS011;66927;48.812;9.118;2023-02-28T09:33:17;11.43;;;7.83;;
12826;SDS011;66927;48.812;9.118;2023-02-28T09:35:45;10.70;;;7.53;;
12826;SDS011;66927;48.812;9.118;2023-02-28T09:38:12;9.63;;;7.50;;
12826;SDS011;66927;48.812;9.118;2023-02-28T09:40:48;12.60;;;7.27;;
12826;SDS011;66927;48.812;9.118;2023-02-28T09:43:20;9.10;;;7.07;;
12826;SDS011;66927;48.812;9.118;2023-02-28T09:48:32;9.27;;;7.27;;
12826;SDS011;66927;48.812;9.118;2023-02-28T09:53:48;9.20;;;7.37;;
12826;SDS011;66927;48.812;9.118;2023-02-28T09:56:18;11.00;;;8.40;;
12826;SDS011;66927;48.812;9.118;2023-02-28T09:59:02;8.47;;;7.30;;
12826;SDS011;66927;48.812;9.118;2023-02-28T10:01:33;8.77;;;7.50;;
12826;SDS011;66927;48.812;9.118;2023-02-28T10:07:02;9.70;;;7.57;;
12826;SDS011;66927;48.812;9.118;2023-02-28T10:09:42;10.87;;;7.30;;
12826;SDS011;66927;48.812;9.118;2023-02-28T10:12:10;13.30;;;8.10;;
12826;SDS011;66927;48.812;9.118;2023-02-28T10:14:37;10.30;;;7.93;;
12826;SDS011;66927;48.812;9.118;2023-02-28T10:17:14;9.80;;;7.67;;
12826;SDS011;66927;48.812;9.118;2023-02-28T10:20:01;10.47;;;7.70;;
12826;SDS011;66927;48.812;9.118;2023-02-28T10:22:38;10.07;;;8.10;;
12826;SDS011;66927;48.812;9.118;2023-02-28T10:25:18;9.50;;;7.67;;
12826;SDS011;66927;48.812;9.118;2023-02-28T10:27:46;8.60;;;7.43;;
12826;SDS011;66927;48.812;9.118;2023-02-28T10:30:12;9.10;;;7.23;;
12826;SDS011;66927;48.812;9.118;2023-02-28T10:32:43;11.80;;;9.57;;
12826;SDS011;66927;48.812;9.118;2023-02-28T10:35:19;11.20;;;7.70;;
12826;SDS011;66927;48.812;9.118;2023-02-28T10:37:48;11.13;;;7.80;;
12826;SDS011;66927;48.812;9.118;2023-02-28T10:45:59;9.40;;;7.70;;
12826;SDS011;66927;48.812;9.118;2023-02-28T10:48:42;8.43;;;7.30;;
12826;SDS011;66927;48.812;9.118;2023-02-28T10:51:11;8.40;;;7.40;;
12826;SDS011;66927;48.812;9.118;2023-02-28T10:56:16;8.13;;;7.07;;
12826;SDS011;66927;48.812;9.118;2023-02-28T10:59:03;8.13;;;7.33;;
12826;SDS011;66927;48.812;9.118;2023-02-28T11:01:40;10.63;;;8.13;;
12826;SDS011;66927;48.812;9.118;2023-02-28T11:04:20;9.37;;;8.07;;
12826;SDS011;66927;48.812;9.118;2023-02-28T11:07:05;11.63;;;8.13;;
12826;SDS011;66927;48.812;9.118;2023-02-28T11:09:48;10.23;;;7.97;;
12826;SDS011;66927;48.812;9.118;2023-02-28T11:12:26;9.83;;;7.93;;
12826;SDS011;66927;48.812;9.118;2023-02-28T11:15:04;8.73;;;7.70;;
12826;SDS011;66927;48.812;9.118;2023-02-28T11:17:43;8.47;;;7.47;;
12826;SDS011;66927;48.812;9.118;2023-02-28T11:20:13;11.73;;;7.20;;
12826;SDS011;66927;48.812;9.118;2023-02-28T11:22:46;8.50;;;7.60;;
12826;SDS011;66927;48.812;9.118;2023-02-28T11:27:55;8.33;;;7.50;;
12826;SDS011;66927;48.812;9.118;2023-02-28T11:30:39;8.20;;;7.40;;
12826;SDS011;66927;48.812;9.118;2023-02-28T11:33:20;7.90;;;7.10;;
12826;SDS011;66927;48.812;9.118;2023-02-28T11:35:47;8.00;;;7.27;;
12826;SDS011;66927;48.812;9.118;2023-02-28T11:38:15;10.80;;;6.90;;
12826;SDS011;66927;48.812;9.118;2023-02-28T11:48:58;7.57;;;6.87;;
12826;SDS011;66927;48.812;9.118;2023-02-28T11:51:47;7.40;;;6.70;;
12826;SDS011;66927;48.812;9.118;2023-02-28T11:54:23;7.47;;;6.77;;
12826;SDS011;66927;48.812;9.118;2023-02-28T12:05:53;7.80;;;7.10;;
12826;SDS011;66927;48.812;9.118;2023-02-28T12:08:23;7.20;;;6.50;;
12826;SDS011;66927;48.812;9.118;2023-02-28T12:17:04;8.20;;;7.50;;
12826;SDS011;66927;48.812;9.118;2023-02-28T12:27:37;7.63;;;6.93;;
12826;SDS011;66927;48.812;9.118;2023-02-28T12:32:34;7.18;;;6.68;;
12826;SDS011;66927;48.812;9.118;2023-02-28T12:37:41;9.35;;;7.18;;
12826;SDS011;66927;48.812;9.118;2023-02-28T12:40:39;7.43;;;6.70;;
12826;SDS011;66927;48.812;9.118;2023-02-28T12:43:13;7.50;;;6.80;;
12826;SDS011;66927;48.812;9.118;2023-02-28T12:45:43;6.82;;;6.22;;
12826;SDS011;66927;48.812;9.118;2023-02-28T12:48:33;7.18;;;6.57;;
12826;SDS011;66927;48.812;9.118;2023-02-28T12:51:06;8.00;;;7.30;;
12826;SDS011;66927;48.812;9.118;2023-02-28T12:56:36;7.90;;;7.10;;
12826;SDS011;66927;48.812;9.118;2023-02-28T13:07:45;7.03;;;6.43;;
12826;SDS011;66927;48.812;9.118;2023-02-28T13:10:24;7.60;;;6.90;;
12826;SDS011;66927;48.812;9.118;2023-02-28T13:13:02;7.65;;;6.90;;
12826;SDS011;66927;48.812;9.118;2023-02-28T13:15:29;7.32;;;6.72;;
12826;SDS011;66927;48.812;9.118;2023-02-28T13:17:56;7.32;;;6.63;;
12826;SDS011;66927;48.812;9.118;2023-02-28T13:20:25;7.37;;;6.50;;
12826;SDS011;66927;48.812;9.118;2023-02-28T13:22:59;7.23;;;6.60;;
12826;SDS011;66927;48.812;9.118;2023-02-28T13:27:58;6.43;;;5.93;;
12826;SDS011;66927;48.812;9.118;2023-02-28T13:33:28;7.57;;;6.78;;
12826;SDS011;66927;48.812;9.118;2023-02-28T13:36:09;7.07;;;6.38;;
12826;SDS011;66927;48.812;9.118;2023-02-28T13:38:48;8.13;;;6.90;;
12826;SDS011;66927;48.812;9.118;2023-02-28T13:46:32;6.93;;;5.97;;
12826;SDS011;66927;48.812;9.118;2023-02-28T14:02:48;7.73;;;6.90;;
12826;SDS011;66927;48.812;9.118;2023-02-28T14:05:38;8.77;;;6.43;;
12826;SDS011;66927;48.812;9.118;2023-02-28T14:08:10;7.40;;;6.70;;
12826;SDS011;66927;48.812;9.118;2023-02-28T14:10:50;6.63;;;6.03;;
12826;SDS011;66927;48.812;9.118;2023-02-28T14:16:13;7.35;;;6.75;;
12826;SDS011;66927;48.812;9.118;2023-02-28T14:19:01;7.18;;;6.47;;
12826;SDS011;66927;48.812;9.118;2023-02-28T14:21:47;7.78;;;7.00;;
12826;SDS011;66927;48.812;9.118;2023-02-28T14:33:05;7.28;;;6.63;;
12826;SDS011;66927;48.812;9.118;2023-02-28T14:35:48;7.20;;;6.70;;
12826;SDS011;66927;48.812;9.118;2023-02-28T14:38:20;7.03;;;6.43;;
12826;SDS011;66927;48.812;9.118;2023-02-28T14:40:49;6.95;;;6.30;;
12826;SDS011;66927;48.812;9.118;2023-02-28T14:43:20;8.70;;;7.13;;
12826;SDS011;66927;48.812;9.118;2023-02-28T14:45:49;7.03;;;6.43;;
12826;SDS011;66927;48.812;9.118;2023-02-28T14:48:26;7.25;;;6.65;;
12826;SDS011;66927;48.812;9.118;2023-02-28T14:50:58;6.82;;;6.18;;
12826;SDS011;66927;48.812;9.118;2023-02-28T14:53:28;7.65;;;7.03;;
12826;SDS011;66927;48.812;9.118;2023-02-28T14:55:55;7.53;;;6.60;;
12826;SDS011;66927;48.812;9.118;2023-02-28T15:00:54;7.10;;;6.50;;
12826;SDS011;66927;48.812;9.118;2023-02-28T15:06:05;8.20;;;7.43;;
12826;SDS011;66927;48.812;9.118;2023-02-28T15:08:42;7.70;;;7.00;;
12826;SDS011;66927;48.812;9.118;2023-02-28T15:11:13;8.33;;;7.00;;
12826;SDS011;66927;48.812;9.118;2023-02-28T15:13:52;7.30;;;6.60;;
12826;SDS011;66927;48.812;9.118;2023-02-28T15:19:05;8.30;;;7.33;;
12826;SDS011;66927;48.812;9.118;2023-02-28T15:21:43;8.90;;;7.23;;
12826;SDS011;66927;48.812;9.118;2023-02-28T15:24:14;7.17;;;6.47;;
12826;SDS011;66927;48.812;9.118;2023-02-28T15:26:59;7.50;;;6.80;;
12826;SDS011;66927;48.812;9.118;2023-02-28T15:29:33;8.37;;;7.40;;
12826;SDS011;66927;48.812;9.118;2023-02-28T15:32:16;7.87;;;7.13;;
12826;SDS011;66927;48.812;9.118;2023-02-28T15:34:56;8.73;;;7.83;;
12826;SDS011;66927;48.812;9.118;2023-02-28T15:37:28;8.70;;;7.50;;
12826;SDS011;66927;48.812;9.118;2023-02-28T15:39:58;8.17;;;7.37;;
12826;SDS011;66927;48.812;9.118;2023-02-28T15:42:35;8.67;;;7.50;;
12826;SDS011;66927;48.812;9.118;2023-02-28T15:45:01;8.83;;;7.83;;
12826;SDS011;66927;48.812;9.118;2023-02-28T15:47:27;8.53;;;7.63;;
12826;SDS011;66927;48.812;9.118;2023-02-28T15:49:58;8.30;;;7.47;;
12826;SDS011;66927;48.812;9.118;2023-02-28T15:52:45;9.23;;;8.27;;
12826;SDS011;66927;48.812;9.118;2023-02-28T15:57:55;9.97;;;7.90;;
12826;SDS011;66927;48.812;9.118;2023-02-28T16:00:26;8.43;;;7.53;;
12826;SDS011;66927;48.812;9.118;2023-02-28T16:02:57;9.87;;;7.80;;
12826;SDS011;66927;48.812;9.118;2023-02-28T16:05:25;10.73;;;8.00;;
12826;SDS011;66927;48.812;9.118;2023-02-28T16:07:53;8.77;;;7.87;;
12826;SDS011;66927;48.812;9.118;2023-02-28T16:10:21;8.23;;;7.40;;
12826;SDS011;66927;48.812;9.118;2023-02-28T16:12:52;7.77;;;6.97;;
12826;SDS011;66927;48.812;9.118;2023-02-28T16:15:21;8.83;;;7.93;;
12826;SDS011;66927;48.812;9.118;2023-02-28T16:17:52;8.33;;;7.53;;
12826;SDS011;66927;48.812;9.118;2023-02-28T16:20:21;10.53;;;7.83;;
12826;SDS011;66927;48.812;9.118;2023-02-28T16:22:52;9.27;;;7.97;;
12826;SDS011;66927;48.812;9.118;2023-02-28T16:25:20;9.60;;;8.60;;
12826;SDS011;66927;48.812;9.118;2023-02-28T16:27:50;9.23;;;8.30;;
12826;SDS011;66927;48.812;9.118;2023-02-28T16:30:21;10.77;;;8.73;;
12826;SDS011;66927;48.812;9.118;2023-02-28T16:32:50;9.33;;;8.20;;
12826;SDS011;66927;48.812;9.118;2023-02-28T16:35:16;9.57;;;8.07;;
12826;SDS011;66927;48.812;9.118;2023-02-28T16:37:44;10.40;;;8.57;;
12826;SDS011;66927;48.812;9.118;2023-02-28T16:40:14;9.83;;;8.60;;
12826;SDS011;66927;48.812;9.118;2023-02-28T16:42:43;8.70;;;7.80;;
12826;SDS011;66927;48.812;9.118;2023-02-28T16:45:17;9.77;;;7.50;;
12826;SDS011;66927;48.812;9.118;2023-02-28T16:47:46;10.90;;;8.70;;
12826;SDS011;66927;48.812;9.118;2023-02-28T16:50:23;10.13;;;8.33;;
12826;SDS011;66927;48.812;9.118;2023-02-28T16:52:51;9.67;;;8.60;;
12826;SDS011;66927;48.812;9.118;2023-02-28T16:55:22;11.40;;;9.23;;
12826;SDS011;66927;48.812;9.118;2023-02-28T16:57:53;9.10;;;8.20;;
12826;SDS011;66927;48.812;9.118;2023-02-28T17:00:20;9.47;;;7.70;;
12826;SDS011;66927;48.812;9.118;2023-02-28T17:02:46;10.77;;;9.33;;
12826;SDS011;66927;48.812;9.118;2023-02-28T17:05:12;11.10;;;8.67;;
12826;SDS011;66927;48.812;9.118;2023-02-28T17:07:40;9.47;;;8.47;;
12826;SDS011;66927;48.812;9.118;2023-02-28T17:10:18;10.30;;;8.60;;
12826;SDS011;66927;48.812;9.118;2023-02-28T17:12:48;9.80;;;8.37;;
12826;SDS011;66927;48.812;9.118;2023-02-28T17:15:16;10.07;;;8.63;;
12826;SDS011;66927;48.812;9.118;2023-02-28T17:17:43;9.20;;;8.23;;
12826;SDS011;66927;48.812;9.118;2023-02-28T17:20:13;10.57;;;8.60;;
12826;SDS011;66927;48.812;9.118;2023-02-28T17:22:44;11.60;;;10.03;;
12826;SDS011;66927;48.812;9.118;2023-02-28T17:25:10;12.53;;;9.40;;
12826;SDS011;66927;48.812;9.118;2023-02-28T17:27:37;10.43;;;8.83;;
12826;SDS011;66927;48.812;9.118;2023-02-28T17:30:25;13.37;;;9.23;;
12826;SDS011;66927;48.812;9.118;2023-02-28T17:32:52;11.43;;;8.83;;
12826;SDS011;66927;48.812;9.118;2023-02-28T17:35:19;10.10;;;8.93;;
12826;SDS011;66927;48.812;9.118;2023-02-28T17:37:45;11.03;;;9.20;;
12826;SDS011;66927;48.812;9.118;2023-02-28T17:40:14;10.07;;;8.90;;
12826;SDS011;66927;48.812;9.118;2023-02-28T17:42:42;13.80;;;9.73;;
12826;SDS011;66927;48.812;9.118;2023-02-28T17:45:08;10.03;;;8.93;;